• Join FlightAware (Why Join?)
  • Login
  • US Flag 
12:05AM EDT


 

Airport Tracker/Info


-or-


 

Live Flight TrackerFlight Track Log ✈ GJS6221 ✈ 27-Dec-2013 ✈ KLGA - KSAV

Flight Track Log - Related Links

Times and Time Zones

All times are in EST time to prevent confusion due to time zone crossing. See the GJS6221 flight status page for this flight to view local times or setup timezone preferences in your user account.

Time Position Orientation Groundspeed Altitude Reporting Facility
EST Latitude Longitude Course Direction KTS MPH feet Rate Location/Type
03:03PM 40.8167 -73.9000 360° North 179 206 1,900  Level New York TRACON
03:04PM 40.8667 -73.9000 360° North 231 266 4,100 1,860 Climbing New York TRACON
03:05PM 40.8667 -73.8167 90° East 309 356 5,700 900 Climbing New York TRACON
03:06PM 40.7833 -73.8000 171° South 277 319 5,900 120 Climbing New York TRACON
03:07PM 40.7167 -73.7833 169° South 275 316 6,000 60 Climbing New York TRACON
03:08PM 40.6500 -73.7833 180° South 257 296 6,100 480 Climbing New York TRACON
03:09PM 40.5833 -73.8167 201° Southwest 250 288 7,000 -60 Climbing New York TRACON
03:23PM 39.7131 -74.5286 216° Southwest 257 296 5,900 -120 Descending Washington Center
03:24PM 39.6520 -74.5647 218° Southwest  Level FlightAware Approximate
03:24PM 39.6572 -74.5836 217° Southwest 262 302 5,900  Level Washington Center
03:25PM 39.5924 -74.6243 218° Southwest  Level FlightAware Approximate
03:25PM 39.5992 -74.6381 216° Southwest 262 302 6,800  Level Washington Center
03:26PM 39.5327 -74.6840 218° Southwest  Level FlightAware Approximate
03:26PM 39.5392 -74.6900 214° Southwest 262 302 9,700  Level Washington Center
03:27PM 39.4725 -74.7425 216° Southwest  Level FlightAware Approximate
03:27PM 39.4814 -74.7419 215° Southwest 262 302 12,100  Level Washington Center
03:28PM 39.4175 -74.7939 216° Southwest  Level FlightAware Approximate
03:28PM 39.4131 -74.8019 214° Southwest 276 318 13,600  Level Washington Center
03:29PM 39.3361 -74.8669 213° Southwest 309 356 15,200 1,860 Climbing Washington Center
03:30PM 39.2553 -74.9350 213° Southwest 335 386 17,300 1,980 Climbing Washington Center
03:31PM 39.1786 -75.0025 214° Southwest 341 392 19,100 1,920 Climbing Washington Center
03:32PM 39.1017 -75.0675 213° Southwest 346 398 21,200 1,980 Climbing Washington Center
03:33PM 39.0250 -75.1319 213° Southwest 346 398 23,100 1,680 Climbing Washington Center
03:34PM 38.9481 -75.1967 213° Southwest 341 392 24,600 1,260 Climbing Washington Center
03:35PM 38.8692 -75.2664 215° Southwest 341 392 25,700 1,140 Climbing Washington Center
03:36PM 38.7900 -75.3306 212° Southwest 346 398 26,900 1,140 Climbing Washington Center
03:37PM 38.7089 -75.3975 213° Southwest 346 398 28,100 1,080 Climbing Washington Center
03:38PM 38.6275 -75.4667 214° Southwest 352 405 29,100 960 Climbing Washington Center
03:39PM 38.5464 -75.5333 213° Southwest 352 405 30,100 960 Climbing Washington Center
03:40PM 38.4672 -75.6022 214° Southwest 352 405 31,100 840 Climbing Washington Center
03:41PM 38.3878 -75.6686 213° Southwest 352 405 31,800 660 Climbing Washington Center
03:42PM 38.3044 -75.7319 211° Southwest 352 405 32,500 660 Climbing Washington Center
03:43PM 38.2250 -75.7953 212° Southwest 347 399 33,200 720 Climbing Washington Center
03:44PM 38.1436 -75.8636 213° Southwest 347 399 34,000 360 Climbing Washington Center
03:45PM 38.0683 -75.9242 212° Southwest 347 399 34,000  Level Washington Center
03:46PM 37.9953 -75.9844 213° Southwest 330 380 34,000  Level Washington Center
03:47PM 37.9200 -76.0472 213° Southwest 325 374 34,000  Level Washington Center
03:48PM 37.8447 -76.1072 212° Southwest 325 374 34,000  Level Washington Center
03:49PM 37.7672 -76.1697 213° Southwest 325 374 34,000  Level Washington Center
03:50PM 37.6917 -76.2322 213° Southwest 330 380 34,000  Level Washington Center
03:51PM 37.6122 -76.2969 213° Southwest 330 380 34,000  Level Washington Center
03:52PM 37.5347 -76.3592 212° Southwest 330 380 34,000  Level Washington Center
03:53PM 37.4569 -76.4211 212° Southwest 330 380 34,000  Level Washington Center
03:54PM 37.3772 -76.4856 213° Southwest 330 380 34,000  Level Washington Center
03:55PM 37.2997 -76.5475 212° Southwest 330 380 34,000  Level Washington Center
03:56PM 37.2219 -76.6092 212° Southwest 335 386 34,000  Level Washington Center
03:57PM 37.1442 -76.6706 212° Southwest 330 380 34,000  Level Washington Center
03:58PM 37.0686 -76.7319 213° Southwest 330 380 34,000  Level Washington Center
03:59PM 36.9908 -76.7933 212° Southwest 330 380 34,000  Level Washington Center
04:00PM 36.9131 -76.8569 213° Southwest 330 380 34,000  Level Washington Center
04:01PM 36.8331 -76.9181 211° Southwest 330 380 34,000  Level Washington Center
04:02PM 36.7553 -76.9789 212° Southwest 335 386 34,000  Level Washington Center
04:03PM 36.6753 -77.0422 212° Southwest 335 386 34,000  Level Washington Center
04:04PM 36.5972 -77.1081 214° Southwest 340 391 34,000  Level Washington Center
04:05PM 36.5192 -77.1736 214° Southwest 345 397 34,000  Level Washington Center
04:06PM 36.4411 -77.2417 215° Southwest 345 397 34,000  Level Washington Center
04:07PM 36.3608 -77.3072 213° Southwest 345 397 34,000  Level Washington Center
04:08PM 36.2825 -77.3725 214° Southwest 350 403 34,000  Level Washington Center
04:09PM 36.2003 -77.4375 213° Southwest 350 403 34,000  Level Washington Center
04:10PM 36.1242 -77.5025 215° Southwest 350 403 34,000  Level Washington Center
04:11PM 36.0436 -77.5725 215° Southwest 350 403 34,000  Level Washington Center
04:12PM 35.9614 -77.6372 213° Southwest 350 403 34,000  Level Washington Center
04:13PM 35.8808 -77.7044 214° Southwest 350 403 34,000  Level Washington Center
04:14PM 35.7961 -77.7714 213° Southwest 355 409 34,000  Level Washington Center
04:15PM 35.7156 -77.8381 214° Southwest 355 409 34,000  Level Washington Center
04:16PM 35.6308 -77.9047 213° Southwest 355 409 34,000  Level Washington Center
04:17PM 35.5461 -77.9714 213° Southwest 355 409 34,000  Level Washington Center
04:18PM 35.4633 -78.0403 214° Southwest 355 409 34,000  Level Washington Center
04:19PM 35.3786 -78.1064 212° Southwest 355 409 34,000  Level Washington Center
04:20PM 35.2914 -78.1775 214° Southwest 355 409 34,000  Level Washington Center
04:21PM 35.2064 -78.2458 213° Southwest 360 414 34,000  Level Washington Center
04:22PM 35.1194 -78.3167 214° Southwest 371 427 34,000  Level Washington Center
04:23PM 35.0450 -78.3750 213° Southwest 371 427 34,000  Level Washington Center
04:27PM 34.7361 -78.6181 213° Southwest 383 441 34,000  Level Jacksonville Center
04:28PM 34.6486 -78.6856 212° Southwest 378 435 34,000  Level Jacksonville Center
04:29PM 34.5614 -78.7553 213° Southwest 387 445 34,000  Level Jacksonville Center
04:30PM 34.4842 -78.8219 215° Southwest 387 445 34,000  Level Jacksonville Center
04:31PM 34.4008 -78.8914 215° Southwest 377 434 34,000  Level Jacksonville Center
04:32PM 34.3219 -78.9706 220° Southwest 377 434 34,000  Level Jacksonville Center
04:33PM 34.2453 -79.0492 220° Southwest 371 427 34,000  Level Jacksonville Center
04:34PM 34.1706 -79.1306 222° Southwest 366 421 34,000  Level Jacksonville Center
04:35PM 34.0956 -79.2114 222° Southwest 372 428 34,000  Level Jacksonville Center
04:36PM 34.0167 -79.2922 220° Southwest 372 428 34,000  Level Jacksonville Center
04:37PM 33.9397 -79.3731 221° Southwest 372 428 34,000  Level Jacksonville Center
04:38PM 33.8544 -79.4564 219° Southwest 372 428 34,000  Level Jacksonville Center
04:39PM 33.7772 -79.5369 221° Southwest 372 428 34,000  Level Jacksonville Center
04:40PM 33.6981 -79.6200 221° Southwest 372 428 34,000 -360 Level Jacksonville Center
04:41PM 33.6186 -79.7003 220° Southwest 372 428 33,300 -1,140 Descending Jacksonville Center
04:42PM 33.5394 -79.7828 221° Southwest 372 428 31,800 -1,500 Descending Jacksonville Center
04:43PM 33.4383 -79.8336 203° Southwest 377 434 30,300 -1,500 Descending Jacksonville Center
04:44PM 33.3372 -79.8817 202° Southwest 388 447 28,800 -1,500 Descending Jacksonville Center
04:45PM 33.2422 -79.9297 203° Southwest 388 447 27,300 -1,680 Descending Jacksonville Center
04:46PM 33.1711 -80.0114 224° Southwest 376 433 25,500 -1,800 Descending Jacksonville Center
04:47PM 33.0978 -80.0931 223° Southwest 362 417 23,800 -1,740 Descending Jacksonville Center
04:48PM 33.0308 -80.1769 226° Southwest 368 423 22,100 -1,740 Descending Jacksonville Center
04:49PM 32.9594 -80.2608 225° Southwest 368 423 20,400 -1,620 Descending Jacksonville Center
04:50PM 32.8922 -80.3347 223° Southwest 365 420 18,900 -1,320 Descending Jacksonville Center
04:51PM 32.8269 -80.4106 224° Southwest 358 412 17,800 -1,320 Descending Jacksonville Center
04:52PM 32.7617 -80.4842 223° Southwest 343 395 16,300 -900 Descending Jacksonville Center
04:53PM 32.6961 -80.5597 224° Southwest 338 389 16,000 -600 Descending Jacksonville Center
04:54PM 32.6308 -80.6331 223° Southwest 333 383 15,100 -1,380 Descending Jacksonville Center
04:55PM 32.5653 -80.7086 224° Southwest 333 383 13,300 -1,740 Descending Jacksonville Center
04:56PM 32.5058 -80.7742 223° Southwest 317 365 11,700 -1,560 Descending Jacksonville Center
04:57PM 32.4525 -80.8369 225° Southwest 294 338 10,200 -1,560 Descending Jacksonville Center
04:58PM 32.3992 -80.8972 224° Southwest 269 310 8,600 -1,620 Descending Jacksonville Center
04:59PM 32.3481 -80.9572 225° Southwest 263 303 7,000 -1,680 Descending Jacksonville Center
05:00PM 32.2925 -81.0222 225° Southwest 263 303 5,300 -1,500 Descending Jacksonville Center
05:01PM 32.2622 -81.0917 243° Southwest 245 282 4,000 -1,200 Descending Jacksonville Center
05:02PM 32.2361 -81.1536 244° Southwest 239 275 2,900 -1,020 Descending Jacksonville Center
05:03PM 32.2097 -81.2206 245° Southwest 234 269 2,000 -600 Descending Jacksonville Center
05:04PM 32.1856 -81.2772 243° Southwest 200 230 1,700 -300 Descending Jacksonville Center
05:06PM 32.1276 -81.2021 270° West  Level Estimated
05:13PM 32.1276 -81.2021 270° West  Level Estimated
05:14PM 32.1276 -81.2021 270° West  Level Estimated
05:15PM 32.1276 -81.2021 270° West  Level Estimated